Time;durP1;ratioP1;P1;durP2;ratioP2;P2;SDS_P1;SDS_P2;PMS_P1;PMS_P2;Temp;Humidity;BMP_temperature;BMP_pressure;BME280_temperature;BME280_humidity;BME280_pressure;Samples;Min_cycle;Max_cycle;Signal;HPM_P1;HPM_P2
2022/05/28 00:00:43;;;;;;;0.90;0.90;;;18.30;99.90;19.70;96691.00;;;;5063713;28;20653;-86
2022/05/28 00:03:33;;;;;;;0.87;0.80;;;18.30;99.90;19.50;96698.00;;;;5059549;28;20294;-87
2022/05/28 00:06:28;;;;;;;2.13;1.43;;;18.30;99.90;19.50;96696.00;;;;5054490;28;20210;-87
2022/05/28 00:09:18;;;;;;;1.07;0.67;;;18.20;99.90;19.40;96694.00;;;;5057356;28;20232;-88
2022/05/28 00:12:08;;;;;;;2.10;1.13;;;18.20;99.90;19.40;96687.00;;;;5048100;28;20200;-88
2022/05/28 00:14:58;;;;;;;0.83;0.83;;;18.20;99.90;19.30;96686.00;;;;5050801;28;20689;-87
2022/05/28 00:17:48;;;;;;;1.27;0.90;;;18.10;99.90;19.30;96701.00;;;;5069938;28;20203;-87
2022/05/28 00:20:37;;;;;;;2.87;0.80;;;18.10;99.90;19.30;96699.00;;;;5057102;28;20220;-87
2022/05/28 00:23:27;;;;;;;0.70;0.50;;;18.00;99.90;19.30;96704.00;;;;5058430;28;20211;-86
2022/05/28 00:26:16;;;;;;;1.13;0.67;;;18.00;99.90;19.30;96707.00;;;;5055582;28;20209;-87
2022/05/28 00:29:06;;;;;;;1.07;0.77;;;18.00;99.90;19.20;96711.00;;;;5052160;28;20228;-87
2022/05/28 00:31:54;;;;;;;1.80;0.80;;;18.00;99.90;19.30;96707.00;;;;5065944;28;20564;-87
2022/05/28 00:34:43;;;;;;;1.10;0.60;;;18.00;99.90;19.30;96699.00;;;;5062447;28;20205;-87
2022/05/28 00:37:32;;;;;;;1.17;0.60;;;18.00;99.90;19.40;96699.00;;;;5046603;28;20201;-87
2022/05/28 00:40:25;;;;;;;0.67;0.53;;;18.00;99.90;19.30;96702.00;;;;5056810;28;20251;-88
2022/05/28 00:43:14;;;;;;;0.97;0.63;;;18.00;99.90;19.10;96719.00;;;;5073796;28;20201;-87
2022/05/28 00:46:08;;;;;;;0.90;0.57;;;17.90;99.90;19.20;96711.00;;;;5072989;28;20209;-87
2022/05/28 00:49:01;;;;;;;1.37;0.70;;;17.90;99.90;19.20;96704.00;;;;5071235;28;20223;-86
2022/05/28 00:51:54;;;;;;;0.70;0.70;;;17.90;99.90;19.10;96699.00;;;;5070413;28;20204;-87
2022/05/28 00:54:46;;;;;;;0.40;0.40;;;17.80;99.90;19.10;96691.00;;;;5076181;28;20191;-87
2022/05/28 00:57:40;;;;;;;1.60;0.60;;;17.80;99.90;19.00;96684.00;;;;5073245;28;20199;-88
2022/05/28 01:00:29;;;;;;;1.73;0.60;;;18.60;99.90;19.00;96690.00;;;;5086521;28;20223;-88
2022/05/28 01:03:24;;;;;;;1.20;0.80;;;17.80;99.90;19.00;96691.00;;;;5071755;28;20205;-87
2022/05/28 01:06:25;;;;;;;1.73;0.70;;;17.70;99.90;18.90;96689.00;;;;5074186;28;20213;-87
2022/05/28 01:09:24;;;;;;;0.70;0.57;;;17.70;99.90;18.80;96678.00;;;;5069349;28;20231;-87
2022/05/28 01:12:20;;;;;;;1.60;0.70;;;17.60;99.90;18.60;96686.00;;;;5069344;28;20204;-87
2022/05/28 01:15:16;;;;;;;0.53;0.53;;;17.60;99.90;18.70;96686.00;;;;5065091;28;20205;-87
2022/05/28 01:18:11;;;;;;;0.60;0.50;;;17.50;99.90;18.80;96666.00;;;;5071013;28;20200;-87
2022/05/28 01:21:05;;;;;;;1.03;0.50;;;17.50;99.90;18.80;96665.00;;;;5064693;28;20208;-87
2022/05/28 01:24:01;;;;;;;0.70;0.70;;;17.50;99.90;18.70;96672.00;;;;5076353;28;20205;-86
2022/05/28 01:26:58;;;;;;;0.57;0.50;;;17.50;99.90;18.50;96665.00;;;;5072336;28;20204;-86
2022/05/28 01:29:50;;;;;;;0.43;0.43;;;17.40;99.90;18.50;96669.00;;;;5071023;28;20225;-86
2022/05/28 01:32:39;;;;;;;4.20;0.90;;;17.40;99.90;18.60;96672.00;;;;5067447;28;20203;-87
2022/05/28 01:35:30;;;;;;;0.40;0.40;;;17.30;99.90;18.70;96668.00;;;;5062468;28;20197;-87
2022/05/28 01:38:20;;;;;;;0.53;0.53;;;17.30;99.90;18.30;96660.00;;;;5060764;28;20685;-87
2022/05/28 01:41:11;;;;;;;5.20;0.73;;;17.30;99.90;18.50;96668.00;;;;5071528;28;20196;-87
2022/05/28 01:44:02;;;;;;;1.47;0.97;;;17.30;99.90;18.60;96675.00;;;;5055845;28;20219;-87
2022/05/28 01:46:53;;;;;;;0.30;0.30;;;17.30;99.90;18.70;96669.00;;;;5050366;28;20208;-88
2022/05/28 01:49:43;;;;;;;1.20;0.60;;;17.30;99.90;18.50;96664.00;;;;5061958;28;20230;-87
2022/05/28 01:52:34;;;;;;;1.00;0.50;;;17.30;99.90;18.50;96674.00;;;;5063801;28;20323;-88
2022/05/28 01:55:26;;;;;;;1.10;0.60;;;17.30;99.90;18.60;96667.00;;;;5064129;28;20205;-87
2022/05/28 01:58:15;;;;;;;2.10;0.27;;;17.30;99.90;18.70;96666.00;;;;5072484;28;20200;-87
2022/05/28 02:01:09;;;;;;;2.23;0.43;;;17.30;99.90;18.70;96654.00;;;;5066714;28;20721;-86
2022/05/28 02:04:04;;;;;;;0.67;0.67;;;17.30;99.90;18.60;96671.00;;;;5066250;28;20196;-87
2022/05/28 02:06:53;;;;;;;0.30;0.20;;;17.30;99.90;18.60;96683.00;;;;5060985;28;20207;-86
2022/05/28 02:09:46;;;;;;;0.20;0.20;;;17.30;99.90;18.70;96669.00;;;;5051231;28;20227;-87
2022/05/28 02:12:47;;;;;;;0.97;0.30;;;17.30;99.90;18.60;96670.00;;;;5054754;28;20674;-88
2022/05/28 02:15:45;;;;;;;0.20;0.20;;;17.20;99.90;18.60;96671.00;;;;5051993;28;20204;-86
2022/05/28 02:18:45;;;;;;;0.37;0.33;;;17.20;99.90;18.50;96675.00;;;;5049301;28;20201;-86
2022/05/28 02:21:44;;;;;;;0.37;0.30;;;17.20;99.90;18.50;96665.00;;;;5057083;28;20212;-87
2022/05/28 02:24:40;;;;;;;0.20;0.20;;;17.20;99.90;18.50;96647.00;;;;5047298;28;20208;-87
2022/05/28 02:27:30;;;;;;;0.20;0.20;;;17.10;99.90;18.50;96653.00;;;;5045850;28;20208;-87
2022/05/28 02:30:19;;;;;;;0.60;0.60;;;17.20;99.90;18.40;96647.00;;;;5053235;28;20225;-86
2022/05/28 02:33:08;;;;;;;0.27;0.27;;;17.10;99.90;18.20;96651.00;;;;5059298;28;20207;-86
2022/05/28 02:35:59;;;;;;;0.30;0.20;;;17.00;99.90;18.30;96647.00;;;;5055116;28;20205;-87
2022/05/28 02:38:47;;;;;;;0.30;0.30;;;17.10;99.90;18.30;96641.00;;;;5053881;28;20235;-87
2022/05/28 02:41:36;;;;;;;0.20;0.20;;;17.00;99.90;18.20;96637.00;;;;5056652;28;20206;-87
2022/05/28 02:44:25;;;;;;;2.60;0.30;;;17.00;99.90;18.10;96637.00;;;;5059260;28;20204;-87
2022/05/28 02:47:14;;;;;;;0.40;0.30;;;17.00;99.90;17.90;96635.00;;;;5053816;28;20321;-87
2022/05/28 02:50:03;;;;;;;0.83;0.40;;;16.90;99.90;17.90;96629.00;;;;5047547;28;20682;-87
2022/05/28 02:52:53;;;;;;;2.83;0.30;;;16.80;99.90;18.00;96623.00;;;;5051526;28;20197;-86
2022/05/28 02:55:42;;;;;;;1.80;0.63;;;16.80;99.90;18.10;96632.00;;;;5058147;28;20196;-86
2022/05/28 02:58:33;;;;;;;0.20;0.20;;;16.80;99.90;18.00;96636.00;;;;5055169;28;20204;-85
2022/05/28 03:01:28;;;;;;;0.30;0.30;;;16.70;99.90;17.90;96640.00;;;;5053664;28;20203;-87
2022/05/28 03:04:18;;;;;;;0.40;0.40;;;16.70;99.90;17.90;96634.00;;;;5067524;28;20203;-87
2022/05/28 03:07:07;;;;;;;0.43;0.43;;;16.70;99.90;18.00;96626.00;;;;5056588;28;20693;-87
2022/05/28 03:09:57;;;;;;;0.30;0.30;;;16.70;99.90;17.90;96634.00;;;;5054799;28;20275;-87
2022/05/28 03:12:46;;;;;;;0.40;0.40;;;16.80;99.90;17.90;96639.00;;;;5049019;28;20188;-87
2022/05/28 03:15:35;;;;;;;0.40;0.40;;;16.60;99.90;17.90;96630.00;;;;5050205;28;20670;-87
2022/05/28 03:18:24;;;;;;;0.50;0.50;;;16.60;99.90;17.80;96631.00;;;;5046509;28;20207;-86
2022/05/28 03:21:13;;;;;;;0.83;0.40;;;16.60;99.90;17.90;96640.00;;;;5063245;28;20259;-87
2022/05/28 03:24:01;;;;;;;0.50;0.43;;;16.60;99.90;17.80;96646.00;;;;5059171;28;20192;-87
2022/05/28 03:26:54;;;;;;;1.33;0.40;;;16.60;99.90;17.60;96662.00;;;;5054700;28;20590;-87
2022/05/28 03:29:42;;;;;;;0.30;0.30;;;16.60;99.90;17.70;96656.00;;;;5053973;28;20599;-87
2022/05/28 03:32:31;;;;;;;0.30;0.30;;;16.50;99.90;17.70;96662.00;;;;5049545;28;20208;-87
2022/05/28 03:35:20;;;;;;;0.60;0.40;;;16.50;99.90;17.70;96653.00;;;;5055503;28;20233;-88
2022/05/28 03:38:09;;;;;;;0.43;0.37;;;16.50;99.90;17.60;96660.00;;;;5046577;28;20196;-88
2022/05/28 03:40:59;;;;;;;0.87;0.53;;;16.50;99.90;17.60;96662.00;;;;5045255;28;20295;-87
2022/05/28 03:43:49;;;;;;;0.50;0.50;;;16.40;99.90;17.40;96669.00;;;;5070798;28;20200;-86
2022/05/28 03:46:39;;;;;;;0.60;0.50;;;16.40;99.90;17.50;96671.00;;;;5050699;28;20220;-87
2022/05/28 03:49:31;;;;;;;0.37;0.37;;;16.40;99.90;17.50;96672.00;;;;5052884;28;20223;-87
2022/05/28 03:52:20;;;;;;;0.37;0.30;;;16.30;99.90;17.60;96665.00;;;;5052819;28;20204;-86
2022/05/28 03:55:10;;;;;;;2.80;0.60;;;16.30;99.90;17.40;96662.00;;;;5055307;28;20208;-87
2022/05/28 03:57:58;;;;;;;3.43;0.60;;;16.20;99.90;17.40;96664.00;;;;5057852;28;20208;-87
2022/05/28 04:00:49;;;;;;;1.37;0.53;;;16.20;99.90;17.30;96679.00;;;;5057864;28;20225;-87
2022/05/28 04:03:38;;;;;;;0.30;0.30;;;16.20;99.90;17.40;96661.00;;;;5063185;28;20703;-87
2022/05/28 04:06:26;;;;;;;0.30;0.30;;;16.10;99.90;17.40;96669.00;;;;5055524;28;20212;-86
2022/05/28 04:09:15;;;;;;;0.50;0.40;;;16.20;99.90;17.30;96668.00;;;;5055113;28;20229;-87
2022/05/28 04:12:05;;;;;;;0.53;0.40;;;16.20;99.90;17.20;96673.00;;;;5060753;28;20212;-87
2022/05/28 04:14:54;;;;;;;0.67;0.67;;;16.10;99.90;17.20;96664.00;;;;5055559;28;20605;-87
2022/05/28 04:17:44;;;;;;;3.47;0.67;;;16.10;99.90;17.30;96663.00;;;;5043152;28;20193;-87
2022/05/28 04:20:33;;;;;;;1.77;0.30;;;16.10;99.90;17.30;96665.00;;;;5051920;28;20239;-86
2022/05/28 04:23:22;;;;;;;0.63;0.50;;;16.10;99.90;17.30;96673.00;;;;5057498;28;20197;-86
2022/05/28 04:26:11;;;;;;;0.30;0.30;;;16.10;99.90;17.40;96657.00;;;;5054149;28;20204;-86
2022/05/28 04:29:00;;;;;;;0.40;0.40;;;16.10;99.90;17.40;96651.00;;;;5051673;28;20324;-87
2022/05/28 04:31:49;;;;;;;0.47;0.47;;;16.20;99.90;17.60;96654.00;;;;5053379;28;20189;-87
2022/05/28 04:34:39;;;;;;;0.57;0.50;;;16.20;99.90;17.50;96656.00;;;;5052484;28;20197;-87
2022/05/28 04:37:28;;;;;;;0.73;0.50;;;16.30;99.90;17.40;96657.00;;;;5047977;28;20208;-86
2022/05/28 04:40:17;;;;;;;0.50;0.50;;;16.30;99.90;17.00;96655.00;;;;5050013;28;20225;-87
2022/05/28 04:43:06;;;;;;;0.77;0.70;;;16.20;99.90;17.30;96659.00;;;;5050423;28;20213;-86
2022/05/28 04:45:55;;;;;;;0.50;0.50;;;16.20;99.90;17.40;96662.00;;;;5052277;28;20254;-87
2022/05/28 04:48:44;;;;;;;0.93;0.70;;;16.20;99.90;17.40;96662.00;;;;5042056;28;20694;-86
2022/05/28 04:51:34;;;;;;;0.60;0.60;;;16.20;99.90;17.30;96664.00;;;;5051994;28;20674;-87
2022/05/28 04:54:22;;;;;;;1.17;0.70;;;16.20;99.90;17.10;96670.00;;;;5053454;28;20200;-87
2022/05/28 04:57:11;;;;;;;0.77;0.60;;;16.10;99.90;17.10;96654.00;;;;5046847;28;20219;-87
2022/05/28 05:00:00;;;;;;;3.33;1.03;;;16.10;99.90;17.10;96660.00;;;;5051367;28;20682;-87
2022/05/28 05:02:50;;;;;;;3.30;1.30;;;16.10;99.90;17.10;96659.00;;;;5049620;28;20197;-87
2022/05/28 05:05:39;;;;;;;1.93;0.83;;;16.00;99.90;17.40;96659.00;;;;5051504;28;20196;-87
2022/05/28 05:08:30;;;;;;;2.27;0.70;;;16.10;99.90;17.50;96657.00;;;;5050817;28;20209;-88
2022/05/28 05:11:19;;;;;;;3.70;0.80;;;16.10;99.90;17.60;96664.00;;;;5052029;28;20201;-87
2022/05/28 05:14:08;;;;;;;0.77;0.77;;;16.10;99.90;17.60;96662.00;;;;5047677;28;20200;-87
2022/05/28 05:16:56;;;;;;;1.57;0.97;;;16.20;99.90;17.60;96664.00;;;;5047604;28;20224;-87
2022/05/28 05:19:45;;;;;;;3.77;2.10;;;16.30;99.90;17.10;96675.00;;;;5054917;28;20240;-87
2022/05/28 05:22:34;;;;;;;3.00;1.77;;;16.30;99.90;17.40;96667.00;;;;5045526;28;20200;-87
2022/05/28 05:25:26;;;;;;;3.23;1.67;;;16.30;99.90;17.80;96664.00;;;;5051206;28;20683;-86
2022/05/28 05:28:15;;;;;;;1.37;0.90;;;16.30;99.90;17.80;96657.00;;;;5051380;28;20769;-86
2022/05/28 05:31:04;;;;;;;4.00;0.90;;;16.40;99.90;17.90;96650.00;;;;5059324;28;20224;-87
2022/05/28 05:33:52;;;;;;;0.97;0.80;;;16.50;99.90;18.10;96668.00;;;;5054270;28;20216;-87
2022/05/28 05:36:41;;;;;;;0.90;0.80;;;16.60;99.90;18.30;96662.00;;;;5054061;28;20196;-87
2022/05/28 05:39:30;;;;;;;1.37;1.17;;;16.70;99.90;18.40;96669.00;;;;5053374;28;20223;-87
2022/05/28 05:42:20;;;;;;;1.63;1.00;;;16.80;99.90;18.50;96664.00;;;;5050541;28;20227;-87
2022/05/28 05:45:11;;;;;;;1.63;1.10;;;16.90;99.90;18.50;96663.00;;;;5052929;28;20211;-87
2022/05/28 05:48:00;;;;;;;1.20;0.97;;;17.00;99.90;18.50;96667.00;;;;5050951;28;20215;-86
2022/05/28 05:50:49;;;;;;;1.63;1.20;;;17.10;99.90;18.60;96658.00;;;;5050824;28;20607;-87
2022/05/28 05:53:39;;;;;;;1.50;1.00;;;17.10;99.90;18.80;96664.00;;;;5054217;28;20200;-87
2022/05/28 05:56:27;;;;;;;2.83;1.37;;;16.80;99.90;18.90;96654.00;;;;5054682;28;20211;-88
2022/05/28 05:59:18;;;;;;;1.40;1.30;;;17.30;99.90;19.10;96662.00;;;;5051430;28;20335;-86
2022/05/28 06:02:08;;;;;;;1.40;1.30;;;17.50;99.90;19.00;96659.00;;;;5045354;28;20229;-87
2022/05/28 06:04:58;;;;;;;3.20;1.30;;;17.60;99.90;19.20;96663.00;;;;5056108;28;20197;-87
2022/05/28 06:07:46;;;;;;;3.60;1.70;;;17.60;99.90;19.10;96674.00;;;;5058828;28;20197;-87
2022/05/28 06:10:35;;;;;;;2.13;1.80;;;17.70;99.90;19.20;96668.00;;;;5060036;28;20228;-88
2022/05/28 06:13:24;;;;;;;2.47;1.47;;;17.80;99.90;19.30;96668.00;;;;5055692;28;20204;-88
2022/05/28 06:16:15;;;;;;;2.20;1.70;;;17.80;99.90;19.30;96669.00;;;;5059514;28;20208;-88
2022/05/28 06:19:05;;;;;;;4.60;1.50;;;17.80;99.90;19.40;96667.00;;;;5054950;28;20225;-86
2022/05/28 06:21:59;;;;;;;3.03;1.30;;;17.90;99.90;19.50;96672.00;;;;5057634;28;20220;-87
2022/05/28 06:24:47;;;;;;;1.60;1.50;;;18.00;99.90;19.30;96679.00;;;;5055098;28;20813;-86
2022/05/28 06:27:37;;;;;;;1.93;1.47;;;18.00;99.90;19.00;96674.00;;;;5057399;28;20196;-86
2022/05/28 06:30:26;;;;;;;1.47;1.20;;;18.00;99.90;18.80;96677.00;;;;5059147;28;20812;-86
2022/05/28 06:33:17;;;;;;;1.93;1.40;;;17.90;99.90;18.60;96683.00;;;;5058195;28;20200;-87
2022/05/28 06:36:09;;;;;;;1.83;1.73;;;17.70;99.90;18.20;96685.00;;;;5055920;28;20216;-85
2022/05/28 06:38:58;;;;;;;1.60;1.50;;;17.50;99.90;18.70;96696.00;;;;5058406;28;20211;-88
2022/05/28 06:41:46;;;;;;;2.33;1.67;;;17.50;99.90;18.70;96700.00;;;;5055993;28;20232;-86
2022/05/28 06:44:36;;;;;;;2.70;2.13;;;17.50;99.90;18.70;96701.00;;;;5053929;28;20208;-87
2022/05/28 06:47:24;;;;;;;2.03;1.90;;;17.50;99.90;18.30;96707.00;;;;5052265;28;20212;-87
2022/05/28 06:53:23;;;;;;;5.60;1.93;;;17.20;99.90;18.40;96698.00;;;;5055561;28;20204;-88
2022/05/28 06:56:13;;;;;;;2.13;2.00;;;17.20;99.90;18.20;96704.00;;;;5051747;28;20216;-87
2022/05/28 06:59:02;;;;;;;1.97;1.73;;;17.20;99.90;18.10;96714.00;;;;5053935;28;20220;-87
2022/05/28 07:01:53;;;;;;;1.97;1.80;;;17.10;99.90;18.00;96712.00;;;;5064920;28;20212;-87
2022/05/28 07:04:42;;;;;;;2.90;1.87;;;17.00;99.90;18.20;96723.00;;;;5056366;28;20201;-87
2022/05/28 07:07:32;;;;;;;2.90;2.50;;;17.00;99.90;18.40;96727.00;;;;5052733;28;20209;-87
2022/05/28 07:10:21;;;;;;;2.63;2.40;;;17.00;99.90;18.60;96732.00;;;;5054616;28;20726;-85
2022/05/28 07:13:10;;;;;;;2.47;2.27;;;17.10;99.90;18.50;96722.00;;;;5056252;28;20200;-87
2022/05/28 07:15:59;;;;;;;1.90;1.80;;;16.20;99.90;18.30;96735.00;;;;5053388;28;20215;-85
2022/05/28 07:18:48;;;;;;;5.13;2.10;;;17.10;99.90;18.40;96721.00;;;;5054649;28;20254;-86
2022/05/28 07:21:37;;;;;;;2.43;2.23;;;17.20;99.90;18.80;96731.00;;;;5059748;28;20224;-87
2022/05/28 07:24:27;;;;;;;3.10;2.10;;;17.30;99.90;19.00;96725.00;;;;5047979;28;20708;-85
2022/05/28 07:27:17;;;;;;;1.90;1.73;;;17.40;99.90;18.80;96728.00;;;;5053998;28;20207;-86
2022/05/28 07:30:08;;;;;;;3.27;2.13;;;17.50;99.90;19.00;96742.00;;;;5045252;28;20232;-85
2022/05/28 07:32:58;;;;;;;2.03;1.83;;;17.60;99.90;18.90;96750.00;;;;5049869;28;20211;-86
2022/05/28 07:35:47;;;;;;;4.70;1.87;;;17.60;99.90;18.20;96743.00;;;;5054132;28;20205;-85
2022/05/28 07:38:37;;;;;;;3.00;2.03;;;17.40;99.90;18.10;96745.00;;;;5056290;28;20219;-86
2022/05/28 07:41:27;;;;;;;2.10;1.77;;;17.20;99.90;17.80;96744.00;;;;5058786;28;20228;-85
2022/05/28 07:44:16;;;;;;;2.10;1.57;;;17.00;99.90;17.70;96760.00;;;;5052468;28;20193;-82
2022/05/28 07:47:07;;;;;;;2.17;1.57;;;16.80;99.90;17.50;96765.00;;;;5054092;28;20219;-86
2022/05/28 07:49:56;;;;;;;2.90;1.60;;;16.60;99.90;17.40;96764.00;;;;5050918;28;20236;-85
2022/05/28 07:52:45;;;;;;;1.80;1.70;;;16.50;99.90;17.20;96771.00;;;;5057283;28;20209;-84
2022/05/28 07:55:35;;;;;;;1.53;1.43;;;16.30;99.90;17.20;96762.00;;;;5056317;28;20201;-85
2022/05/28 07:58:26;;;;;;;1.90;1.70;;;16.20;99.90;17.00;96768.00;;;;5052957;28;20200;-83
2022/05/28 08:01:23;;;;;;;1.50;1.40;;;16.10;99.90;16.90;96776.00;;;;5056756;28;20212;-84
2022/05/28 08:04:12;;;;;;;1.57;1.47;;;15.90;99.90;16.90;96770.00;;;;5051692;28;20220;-87
2022/05/28 08:07:02;;;;;;;1.47;1.37;;;15.80;99.90;16.70;96763.00;;;;5056599;28;20259;-87
2022/05/28 08:09:50;;;;;;;1.63;1.53;;;15.80;99.90;16.90;96766.00;;;;5049258;28;20231;-86
2022/05/28 08:12:39;;;;;;;1.77;1.50;;;15.80;99.90;17.10;96759.00;;;;5057864;28;20197;-85
2022/05/28 08:15:30;;;;;;;4.17;1.70;;;15.90;99.90;17.10;96768.00;;;;5055429;28;20196;-85
2022/05/28 08:18:24;;;;;;;1.80;1.47;;;15.80;99.90;17.10;96765.00;;;;5049013;28;20209;-86
2022/05/28 08:24:19;;;;;;;3.03;1.90;;;15.80;99.90;17.10;96789.00;;;;5054709;28;20209;-86
2022/05/28 08:27:10;;;;;;;2.00;1.90;;;15.80;99.90;16.60;96789.00;;;;5055061;28;20212;-85
2022/05/28 08:29:58;;;;;;;1.97;1.57;;;15.70;99.90;16.20;96795.00;;;;5049136;28;20224;-87
2022/05/28 08:32:48;;;;;;;2.77;2.03;;;15.60;99.90;16.10;96787.00;;;;5050761;28;20579;-84
2022/05/28 08:35:40;;;;;;;2.53;1.90;;;15.40;99.90;16.20;96804.00;;;;5038457;28;20197;-86
2022/05/28 08:38:29;;;;;;;2.57;2.17;;;15.20;99.90;16.30;96815.00;;;;5049363;28;20196;-86
2022/05/28 08:41:21;;;;;;;3.97;2.13;;;15.20;99.90;16.20;96815.00;;;;5045116;28;20212;-87
2022/05/28 08:44:17;;;;;;;2.37;2.17;;;15.10;99.90;16.20;96803.00;;;;5047944;28;20202;-87
2022/05/28 08:47:18;;;;;;;5.03;2.30;;;15.00;99.90;16.10;96818.00;;;;5052937;28;21769;-86
2022/05/28 08:50:11;;;;;;;3.10;1.93;;;14.90;99.90;16.20;96816.00;;;;5049299;28;20239;-85
2022/05/28 08:53:08;;;;;;;1.93;1.63;;;14.90;99.90;15.30;96809.00;;;;5053812;28;20596;-87
2022/05/28 08:55:59;;;;;;;3.57;2.30;;;14.80;99.90;15.80;96810.00;;;;5052699;28;20207;-86
2022/05/28 08:59:03;;;;;;;3.10;2.00;;;14.70;99.90;16.10;96816.00;;;;5050698;28;20192;-87
2022/05/28 09:01:53;;;;;;;2.00;1.67;;;14.70;99.90;15.80;96832.00;;;;5057301;28;20200;-85
2022/05/28 09:04:44;;;;;;;2.00;1.90;;;14.60;99.90;15.70;96830.00;;;;5058967;28;20192;-86
2022/05/28 09:07:35;;;;;;;1.63;1.53;;;14.60;99.90;14.70;96823.00;;;;5053521;28;20708;-86
2022/05/28 09:10:23;;;;;;;3.27;1.67;;;14.30;99.90;14.60;96826.00;;;;5057253;28;20232;-87
2022/05/28 09:13:22;;;;;;;2.03;1.93;;;14.10;99.90;14.50;96823.00;;;;5054763;28;20553;-86
2022/05/28 09:16:26;;;;;;;2.10;1.90;;;13.80;99.90;14.30;96811.00;;;;5058880;28;20204;-86
2022/05/28 09:19:19;;;;;;;2.90;2.20;;;13.80;99.90;14.50;96826.00;;;;5057773;28;20224;-86
2022/05/28 09:22:09;;;;;;;3.17;1.83;;;13.70;99.90;14.10;96829.00;;;;5055733;28;20200;-86
2022/05/28 09:24:59;;;;;;;2.50;2.10;;;13.70;99.90;13.70;96833.00;;;;5051458;28;20205;-85
2022/05/28 09:28:01;;;;;;;3.33;2.00;;;13.40;99.90;13.80;96818.00;;;;5046803;28;20196;-85
2022/05/28 09:30:59;;;;;;;2.33;2.13;;;13.30;99.90;13.70;96825.00;;;;5049976;28;20231;-85
2022/05/28 09:34:08;;;;;;;3.33;2.37;;;13.20;99.90;13.80;96834.00;;;;5060231;28;20196;-85
2022/05/28 09:37:07;;;;;;;2.40;2.07;;;13.10;99.90;13.60;96830.00;;;;5060888;28;20223;-86
2022/05/28 09:40:05;;;;;;;2.90;2.37;;;13.00;99.90;13.60;96833.00;;;;5054216;28;20220;-86
2022/05/28 09:43:18;;;;;;;3.77;2.53;;;13.10;99.90;13.70;96829.00;;;;5052590;28;20300;-86
2022/05/28 09:46:16;;;;;;;2.20;1.93;;;13.00;99.90;13.70;96842.00;;;;5052300;28;20214;-87
2022/05/28 09:49:13;;;;;;;2.23;1.93;;;13.00;99.90;13.80;96844.00;;;;5054607;28;20228;-87
2022/05/28 09:52:09;;;;;;;2.47;2.27;;;12.90;99.90;14.00;96837.00;;;;5050887;28;20212;-86
2022/05/28 09:55:21;;;;;;;2.20;2.00;;;13.00;99.90;13.60;96843.00;;;;5049540;28;20670;-87
2022/05/28 09:58:21;;;;;;;2.30;2.10;;;13.00;99.90;13.50;96846.00;;;;5049993;28;20208;-87
2022/05/28 10:01:14;;;;;;;2.67;2.47;;;13.00;99.90;13.70;96838.00;;;;5052790;28;20208;-86
2022/05/28 10:07:30;;;;;;;3.93;2.30;;;13.00;99.90;13.80;96838.00;;;;5051582;28;20209;-87
2022/05/28 10:10:24;;;;;;;2.53;2.33;;;12.90;99.90;13.60;96831.00;;;;5054490;28;20217;-86
2022/05/28 10:13:16;;;;;;;8.07;2.93;;;12.90;99.90;14.00;96831.00;;;;5051054;28;20606;-85
2022/05/28 10:16:06;;;;;;;3.13;2.07;;;12.80;99.90;13.90;96829.00;;;;5054117;28;20197;-86
2022/05/28 10:18:57;;;;;;;3.67;2.47;;;12.90;99.90;13.70;96834.00;;;;5051994;28;20197;-87
2022/05/28 10:21:53;;;;;;;2.57;2.37;;;12.90;99.90;13.40;96823.00;;;;5054265;28;20197;-89
2022/05/28 10:24:45;;;;;;;2.50;2.30;;;12.90;99.90;13.30;96824.00;;;;5053330;28;20228;-85
2022/05/28 10:27:45;;;;;;;2.40;2.20;;;12.70;99.90;13.30;96822.00;;;;5049206;28;21400;-86
2022/05/28 10:30:37;;;;;;;5.47;2.33;;;12.70;99.90;13.50;96830.00;;;;5047506;28;20597;-88
2022/05/28 10:33:30;;;;;;;3.97;2.30;;;12.80;99.90;13.20;96827.00;;;;5051296;28;20394;-86
2022/05/28 10:36:28;;;;;;;2.77;2.40;;;12.70;99.90;12.90;96825.00;;;;5043923;28;20200;-86
2022/05/28 10:39:20;;;;;;;2.93;2.60;;;12.60;99.90;13.20;96829.00;;;;5040382;28;20222;-85
2022/05/28 10:42:12;;;;;;;2.53;2.33;;;12.60;99.90;13.00;96828.00;;;;5037988;28;20211;-86
2022/05/28 10:45:03;;;;;;;4.30;2.50;;;12.50;99.90;13.20;96824.00;;;;5043671;28;20193;-85
2022/05/28 10:48:28;;;;;;;2.40;2.20;;;12.50;99.90;13.20;96819.00;;;;5046646;28;20209;-85
2022/05/28 10:51:22;;;;;;;3.53;2.23;;;12.30;99.90;13.30;96825.00;;;;5051531;28;20768;-86
2022/05/28 10:54:35;;;;;;;2.10;1.97;;;12.50;99.90;13.40;96817.00;;;;5045658;28;20208;-86
2022/05/28 10:58:03;;;;;;;2.13;1.93;;;12.60;99.90;13.10;96811.00;;;;5038459;28;20685;-86
2022/05/28 11:01:02;;;;;;;2.80;2.40;;;12.60;99.90;13.20;96817.00;;;;5036222;28;20233;-88
2022/05/28 11:04:30;;;;;;;2.07;1.90;;;12.60;99.90;13.10;96830.00;;;;5037985;28;20225;-86
2022/05/28 11:07:37;;;;;;;2.70;1.77;;;12.50;99.90;12.70;96825.00;;;;5039198;28;20266;-86
2022/05/28 11:10:55;;;;;;;6.10;2.70;;;12.40;99.90;13.30;96830.00;;;;5039465;28;20220;-87
2022/05/28 11:14:10;;;;;;;3.40;2.20;;;12.50;99.90;13.40;96827.00;;;;5042868;28;20209;-85
2022/05/28 11:17:25;;;;;;;2.07;1.93;;;12.50;99.90;13.10;96834.00;;;;5047280;28;20682;-87
2022/05/28 11:20:23;;;;;;;4.00;3.20;;;12.60;99.90;13.30;96819.00;;;;5042262;28;20236;-87
2022/05/28 11:23:50;;;;;;;2.83;2.63;;;12.60;99.90;13.50;96833.00;;;;5034599;28;20774;-87
2022/05/28 11:26:50;;;;;;;3.70;2.50;;;12.50;99.90;13.30;96818.00;;;;5043227;28;20208;-86
2022/05/28 11:29:55;;;;;;;1.73;1.63;;;12.60;99.90;13.30;96823.00;;;;5044566;28;20702;-85
2022/05/28 11:32:51;;;;;;;2.53;2.33;;;12.80;99.90;13.10;96824.00;;;;5042545;28;20224;-86
2022/05/28 11:35:44;;;;;;;2.23;2.00;;;12.50;99.90;13.20;96806.00;;;;5042189;28;20258;-89
2022/05/28 11:38:38;;;;;;;3.17;2.27;;;12.60;99.90;13.10;96797.00;;;;5042599;28;20665;-88
2022/05/28 11:41:35;;;;;;;3.67;2.07;;;12.70;99.90;13.20;96800.00;;;;5045365;28;20217;-87
2022/05/28 11:44:30;;;;;;;4.00;1.70;;;12.50;99.90;13.10;96804.00;;;;5043776;28;20227;-88
2022/05/28 11:47:41;;;;;;;3.30;1.80;;;12.50;99.90;12.90;96801.00;;;;5043815;28;20201;-87
2022/05/28 11:53:51;;;;;;;3.17;2.10;;;12.60;99.90;12.90;96790.00;;;;5048816;28;20677;-86
2022/05/28 11:56:41;;;;;;;2.93;2.57;;;12.60;99.90;13.60;96784.00;;;;5047615;28;20200;-86
2022/05/28 11:59:31;;;;;;;1.83;1.73;;;12.60;99.90;13.90;96789.00;;;;5040212;28;20312;-87
2022/05/28 12:02:30;;;;;;;2.03;1.77;;;12.70;99.90;14.00;96783.00;;;;5039959;28;20216;-87
2022/05/28 12:05:24;;;;;;;4.03;2.00;;;12.80;99.90;14.10;96790.00;;;;5040914;28;20600;-87
2022/05/28 12:08:28;;;;;;;1.90;1.73;;;12.90;99.90;13.90;96786.00;;;;5044555;28;20196;-87
2022/05/28 12:11:42;;;;;;;1.83;1.70;;;13.00;99.90;14.40;96792.00;;;;5044826;28;20541;-86
2022/05/28 12:14:34;;;;;;;1.60;1.50;;;13.20;99.90;14.30;96782.00;;;;5046144;28;20211;-87
2022/05/28 12:17:28;;;;;;;2.00;1.90;;;13.30;99.90;14.40;96791.00;;;;5042063;28;20262;-85
2022/05/28 12:20:29;;;;;;;2.10;2.00;;;13.20;99.90;14.60;96774.00;;;;5045605;28;20240;-85
2022/05/28 12:23:33;;;;;;;1.90;1.50;;;13.60;99.90;14.50;96758.00;;;;5048899;28;20689;-83
2022/05/28 12:26:47;;;;;;;4.00;1.50;;;13.50;99.90;14.90;96773.00;;;;5038445;28;20217;-83
2022/05/28 12:29:43;;;;;;;2.70;1.33;;;13.50;99.90;14.60;96755.00;;;;5046712;28;20227;-85
2022/05/28 12:32:45;;;;;;;3.20;1.60;;;13.50;99.90;15.20;96754.00;;;;5045262;28;20209;-86
2022/05/28 12:35:44;;;;;;;1.50;1.40;;;13.80;99.90;15.90;96768.00;;;;5045546;28;20213;-84
2022/05/28 12:38:53;;;;;;;1.87;1.30;;;14.00;99.90;16.30;96734.00;;;;5044437;28;20208;-86
2022/05/28 12:41:43;;;;;;;1.83;1.40;;;14.40;99.90;15.70;96721.00;;;;5035262;28;20208;-87
2022/05/28 12:44:34;;;;;;;4.53;1.40;;;14.70;99.90;16.20;96713.00;;;;5038013;28;20228;-85
2022/05/28 12:47:28;;;;;;;1.80;1.00;;;14.80;99.90;15.60;96710.00;;;;5041655;28;20216;-87
2022/05/28 12:50:30;;;;;;;1.80;1.67;;;14.80;99.90;16.00;96724.00;;;;5040334;28;20233;-86
2022/05/28 12:53:20;;;;;;;1.57;1.13;;;14.90;99.90;16.20;96720.00;;;;5042974;28;20696;-85
2022/05/28 12:56:28;;;;;;;1.27;1.17;;;14.90;99.90;16.00;96713.00;;;;5037913;28;20204;-87
2022/05/28 12:59:34;;;;;;;1.07;1.07;;;14.90;99.90;15.20;96701.00;;;;5037239;28;20659;-86
2022/05/28 13:02:30;;;;;;;1.70;1.40;;;14.80;99.90;15.10;96694.00;;;;5042895;28;20216;-87